sensor_id;sensor_type;location;lat;lon;timestamp;pressure;altitude;pressure_sealevel;temperature;humidity
60061;BME280;45933;51.336;12.612;2022-07-23T00:01:16;100003.44;;;23.43;46.31
60061;BME280;45933;51.336;12.612;2022-07-23T00:03:41;99992.88;;;23.42;46.73
60061;BME280;45933;51.336;12.612;2022-07-23T00:06:07;100008.75;;;23.43;46.79
60061;BME280;45933;51.336;12.612;2022-07-23T00:08:32;100009.78;;;23.41;46.57
60061;BME280;45933;51.336;12.612;2022-07-23T00:10:57;100009.03;;;23.39;46.83
60061;BME280;45933;51.336;12.612;2022-07-23T00:13:23;100002.94;;;23.37;46.71
60061;BME280;45933;51.336;12.612;2022-07-23T00:15:48;100001.88;;;23.39;46.54
60061;BME280;45933;51.336;12.612;2022-07-23T00:18:13;100005.50;;;23.38;46.54
60061;BME280;45933;51.336;12.612;2022-07-23T00:20:39;99996.84;;;23.35;46.80
60061;BME280;45933;51.336;12.612;2022-07-23T00:23:04;99992.69;;;23.31;46.85
60061;BME280;45933;51.336;12.612;2022-07-23T00:25:30;99987.53;;;23.28;46.80
60061;BME280;45933;51.336;12.612;2022-07-23T00:27:55;99982.22;;;23.28;46.74
60061;BME280;45933;51.336;12.612;2022-07-23T00:30:21;99987.81;;;23.23;47.00
60061;BME280;45933;51.336;12.612;2022-07-23T00:32:47;99978.88;;;23.24;47.16
60061;BME280;45933;51.336;12.612;2022-07-23T00:35:14;99981.72;;;23.21;47.07
60061;BME280;45933;51.336;12.612;2022-07-23T00:37:39;99971.16;;;23.19;46.99
60061;BME280;45933;51.336;12.612;2022-07-23T00:40:05;99970.50;;;23.16;47.04
60061;BME280;45933;51.336;12.612;2022-07-23T00:42:32;99970.78;;;23.11;47.38
60061;BME280;45933;51.336;12.612;2022-07-23T00:44:57;99973.59;;;23.08;47.32
60061;BME280;45933;51.336;12.612;2022-07-23T00:47:23;99973.59;;;23.08;47.21
60061;BME280;45933;51.336;12.612;2022-07-23T00:49:48;99958.78;;;23.04;47.21
60061;BME280;45933;51.336;12.612;2022-07-23T00:52:13;99977.56;;;23.01;47.61
60061;BME280;45933;51.336;12.612;2022-07-23T00:54:39;99972.53;;;22.96;47.43
60061;BME280;45933;51.336;12.612;2022-07-23T00:57:05;99962.25;;;22.90;47.67
60061;BME280;45933;51.336;12.612;2022-07-23T00:59:30;99965.06;;;22.87;47.73
60061;BME280;45933;51.336;12.612;2022-07-23T01:01:56;99957.28;;;22.84;47.75
60061;BME280;45933;51.336;12.612;2022-07-23T01:04:21;99959.25;;;22.81;48.04
60061;BME280;45933;51.336;12.612;2022-07-23T01:06:47;99944.41;;;22.77;48.12
60061;BME280;45933;51.336;12.612;2022-07-23T01:09:13;99945.47;;;22.74;47.94
60061;BME280;45933;51.336;12.612;2022-07-23T01:11:38;99936.81;;;22.70;48.10
60061;BME280;45933;51.336;12.612;2022-07-23T01:14:09;99928.09;;;22.68;48.16
60061;BME280;45933;51.336;12.612;2022-07-23T01:16:35;99927.38;;;22.65;48.15
60061;BME280;45933;51.336;12.612;2022-07-23T01:19:00;99926.63;;;22.63;48.07
60061;BME280;45933;51.336;12.612;2022-07-23T01:21:25;99921.31;;;22.63;48.10
60061;BME280;45933;51.336;12.612;2022-07-23T01:23:51;99927.84;;;22.57;48.39
60061;BME280;45933;51.336;12.612;2022-07-23T01:26:16;99925.25;;;22.56;48.40
60061;BME280;45933;51.336;12.612;2022-07-23T01:28:42;99921.00;;;22.53;48.69
60061;BME280;45933;51.336;12.612;2022-07-23T01:31:08;99922.00;;;22.51;48.79
60061;BME280;45933;51.336;12.612;2022-07-23T01:33:33;99919.53;;;22.48;48.58
60061;BME280;45933;51.336;12.612;2022-07-23T01:35:58;99908.91;;;22.48;48.74
60061;BME280;45933;51.336;12.612;2022-07-23T01:38:24;99898.38;;;22.46;48.67
60061;BME280;45933;51.336;12.612;2022-07-23T01:40:49;99897.59;;;22.44;49.07
60061;BME280;45933;51.336;12.612;2022-07-23T01:43:15;99897.81;;;22.41;49.11
60061;BME280;45933;51.336;12.612;2022-07-23T01:45:40;99897.00;;;22.39;49.03
60061;BME280;45933;51.336;12.612;2022-07-23T01:48:06;99910.28;;;22.39;49.23
60061;BME280;45933;51.336;12.612;2022-07-23T01:50:32;99916.47;;;22.39;49.05
60061;BME280;45933;51.336;12.612;2022-07-23T01:52:57;99913.03;;;22.37;49.17
60061;BME280;45933;51.336;12.612;2022-07-23T01:55:22;99917.25;;;22.41;49.21
60061;BME280;45933;51.336;12.612;2022-07-23T01:57:48;99917.31;;;22.40;49.20
60061;BME280;45933;51.336;12.612;2022-07-23T02:00:13;99897.00;;;22.39;49.26
60061;BME280;45933;51.336;12.612;2022-07-23T02:02:39;99904.03;;;22.40;49.04
60061;BME280;45933;51.336;12.612;2022-07-23T02:05:05;99905.78;;;22.41;49.43
60061;BME280;45933;51.336;12.612;2022-07-23T02:07:30;99903.03;;;22.42;49.18
60061;BME280;45933;51.336;12.612;2022-07-23T02:09:55;99897.72;;;22.42;49.45
60061;BME280;45933;51.336;12.612;2022-07-23T02:12:21;99898.56;;;22.43;49.38
60061;BME280;45933;51.336;12.612;2022-07-23T02:14:46;99891.53;;;22.42;49.53
60061;BME280;45933;51.336;12.612;2022-07-23T02:17:11;99894.09;;;22.43;49.70
60061;BME280;45933;51.336;12.612;2022-07-23T02:19:37;99893.94;;;22.47;49.62
60061;BME280;45933;51.336;12.612;2022-07-23T02:22:02;99901.03;;;22.46;49.44
60061;BME280;45933;51.336;12.612;2022-07-23T02:24:27;99894.84;;;22.45;49.37
60061;BME280;45933;51.336;12.612;2022-07-23T02:26:53;99883.47;;;22.43;49.44
60061;BME280;45933;51.336;12.612;2022-07-23T02:29:18;99872.84;;;22.43;49.33
60061;BME280;45933;51.336;12.612;2022-07-23T02:31:43;99881.09;;;22.39;49.46
60061;BME280;45933;51.336;12.612;2022-07-23T02:34:09;99887.34;;;22.38;49.30
60061;BME280;45933;51.336;12.612;2022-07-23T02:36:37;99898.22;;;22.33;49.83
60061;BME280;45933;51.336;12.612;2022-07-23T02:39:02;99912.53;;;22.31;49.49
60061;BME280;45933;51.336;12.612;2022-07-23T02:41:28;99926.84;;;22.28;49.72
60061;BME280;45933;51.336;12.612;2022-07-23T02:43:53;99931.44;;;22.25;49.82
60061;BME280;45933;51.336;12.612;2022-07-23T02:46:19;99931.44;;;22.25;49.63
60061;BME280;45933;51.336;12.612;2022-07-23T02:48:44;99936.84;;;22.23;49.91
60061;BME280;45933;51.336;12.612;2022-07-23T02:51:09;99934.56;;;22.17;49.79
60061;BME280;45933;51.336;12.612;2022-07-23T02:53:35;99944.22;;;22.18;49.71
60061;BME280;45933;51.336;12.612;2022-07-23T02:56:00;99941.91;;;22.12;49.64
60061;BME280;45933;51.336;12.612;2022-07-23T02:58:25;99947.34;;;22.09;49.75
60061;BME280;45933;51.336;12.612;2022-07-23T03:00:52;99948.28;;;22.08;49.79
60061;BME280;45933;51.336;12.612;2022-07-23T03:03:18;99946.69;;;22.05;49.75
60061;BME280;45933;51.336;12.612;2022-07-23T03:05:43;99951.28;;;22.02;49.93
60061;BME280;45933;51.336;12.612;2022-07-23T03:08:08;99952.34;;;21.99;49.81
60061;BME280;45933;51.336;12.612;2022-07-23T03:10:34;99965.84;;;21.95;50.00
60061;BME280;45933;51.336;12.612;2022-07-23T03:12:59;99961.53;;;21.92;49.83
60061;BME280;45933;51.336;12.612;2022-07-23T03:15:24;99946.56;;;21.91;49.80
60061;BME280;45933;51.336;12.612;2022-07-23T03:17:50;99943.41;;;21.84;50.03
60061;BME280;45933;51.336;12.612;2022-07-23T03:20:15;99934.75;;;21.81;49.90
60061;BME280;45933;51.336;12.612;2022-07-23T03:22:40;99936.63;;;21.79;49.95
60061;BME280;45933;51.336;12.612;2022-07-23T03:25:06;99938.59;;;21.75;49.89
60061;BME280;45933;51.336;12.612;2022-07-23T03:27:32;99937.13;;;21.70;50.09
60061;BME280;45933;51.336;12.612;2022-07-23T03:29:59;99939.00;;;21.67;50.46
60061;BME280;45933;51.336;12.612;2022-07-23T03:32:24;99925.75;;;21.67;50.13
60061;BME280;45933;51.336;12.612;2022-07-23T03:34:50;99911.59;;;21.67;50.15
60061;BME280;45933;51.336;12.612;2022-07-23T03:37:16;99903.81;;;21.64;50.12
60061;BME280;45933;51.336;12.612;2022-07-23T03:39:42;99909.38;;;21.59;49.97
60061;BME280;45933;51.336;12.612;2022-07-23T03:42:09;99909.38;;;21.59;50.18
60061;BME280;45933;51.336;12.612;2022-07-23T03:44:35;99902.59;;;21.54;50.06
60061;BME280;45933;51.336;12.612;2022-07-23T03:47:02;99890.34;;;21.51;50.16
60061;BME280;45933;51.336;12.612;2022-07-23T03:49:28;99891.28;;;21.50;49.87
60061;BME280;45933;51.336;12.612;2022-07-23T03:51:53;99895.84;;;21.48;49.97
60061;BME280;45933;51.336;12.612;2022-07-23T03:54:19;99890.44;;;21.50;49.80
60061;BME280;45933;51.336;12.612;2022-07-23T03:56:44;99872.81;;;21.49;49.85
60061;BME280;45933;51.336;12.612;2022-07-23T03:59:10;99877.19;;;21.50;49.84
60061;BME280;45933;51.336;12.612;2022-07-23T04:01:35;99886.22;;;21.46;49.78
60061;BME280;45933;51.336;12.612;2022-07-23T04:04:02;99884.53;;;21.45;49.95
60061;BME280;45933;51.336;12.612;2022-07-23T04:06:27;99891.72;;;21.43;49.87
60061;BME280;45933;51.336;12.612;2022-07-23T04:08:52;99904.88;;;21.44;50.00
60061;BME280;45933;51.336;12.612;2022-07-23T04:11:18;99912.00;;;21.44;49.98
60061;BME280;45933;51.336;12.612;2022-07-23T04:13:43;99916.44;;;21.43;50.00
60061;BME280;45933;51.336;12.612;2022-07-23T04:16:09;99931.41;;;21.44;50.02
60061;BME280;45933;51.336;12.612;2022-07-23T04:18:34;99942.09;;;21.43;49.90
60061;BME280;45933;51.336;12.612;2022-07-23T04:20:59;99948.16;;;21.45;49.83
60061;BME280;45933;51.336;12.612;2022-07-23T04:23:25;99961.38;;;21.46;49.75
60061;BME280;45933;51.336;12.612;2022-07-23T04:25:50;99979.00;;;21.47;50.14
60061;BME280;45933;51.336;12.612;2022-07-23T04:28:15;100004.69;;;21.45;50.17
60061;BME280;45933;51.336;12.612;2022-07-23T04:30:41;100033.03;;;21.45;49.95
60061;BME280;45933;51.336;12.612;2022-07-23T04:33:06;100035.03;;;21.39;50.35
60061;BME280;45933;51.336;12.612;2022-07-23T04:35:35;100035.22;;;21.36;50.52
60061;BME280;45933;51.336;12.612;2022-07-23T04:38:02;100031.09;;;21.29;50.37
60061;BME280;45933;51.336;12.612;2022-07-23T04:40:28;100010.00;;;21.28;50.35
60061;BME280;45933;51.336;12.612;2022-07-23T04:42:54;100013.66;;;21.25;50.50
60061;BME280;45933;51.336;12.612;2022-07-23T04:45:19;100033.63;;;21.15;50.39
60061;BME280;45933;51.336;12.612;2022-07-23T04:47:45;100036.31;;;21.13;50.41
60061;BME280;45933;51.336;12.612;2022-07-23T04:50:10;100030.03;;;21.16;50.33
60061;BME280;45933;51.336;12.612;2022-07-23T04:52:36;100027.28;;;21.18;50.29
60061;BME280;45933;51.336;12.612;2022-07-23T04:55:01;100022.94;;;21.17;50.21
60061;BME280;45933;51.336;12.612;2022-07-23T04:57:27;100023.78;;;21.17;50.21
60061;BME280;45933;51.336;12.612;2022-07-23T04:59:52;99981.16;;;21.22;50.02
60061;BME280;45933;51.336;12.612;2022-07-23T05:02:18;99956.44;;;21.21;50.24
60061;BME280;45933;51.336;12.612;2022-07-23T05:04:43;99963.34;;;21.24;52.29
60061;BME280;45933;51.336;12.612;2022-07-23T05:07:08;99940.34;;;21.24;52.53
60061;BME280;45933;51.336;12.612;2022-07-23T05:09:34;99900.91;;;21.18;52.20
60061;BME280;45933;51.336;12.612;2022-07-23T05:12:00;99877.25;;;21.15;52.67
60061;BME280;45933;51.336;12.612;2022-07-23T05:14:25;99872.22;;;21.09;53.19
60061;BME280;45933;51.336;12.612;2022-07-23T05:16:51;99880.75;;;20.98;53.01
60061;BME280;45933;51.336;12.612;2022-07-23T05:19:16;99889.00;;;20.92;53.42
60061;BME280;45933;51.336;12.612;2022-07-23T05:21:41;99903.38;;;20.88;53.58
60061;BME280;45933;51.336;12.612;2022-07-23T05:24:07;99926.41;;;20.86;53.75
60061;BME280;45933;51.336;12.612;2022-07-23T05:26:32;99931.91;;;20.83;54.17
60061;BME280;45933;51.336;12.612;2022-07-23T05:28:58;99949.72;;;20.79;54.35
60061;BME280;45933;51.336;12.612;2022-07-23T05:31:24;99940.91;;;20.79;56.71
60061;BME280;45933;51.336;12.612;2022-07-23T05:33:49;99946.22;;;20.79;55.62
60061;BME280;45933;51.336;12.612;2022-07-23T05:36:14;99941.69;;;20.81;56.08
60061;BME280;45933;51.336;12.612;2022-07-23T05:38:40;99930.25;;;20.80;55.76
60061;BME280;45933;51.336;12.612;2022-07-23T05:41:05;99915.91;;;20.84;55.31
60061;BME280;45933;51.336;12.612;2022-07-23T05:43:31;99914.19;;;20.83;56.09
60061;BME280;45933;51.336;12.612;2022-07-23T05:45:56;99938.03;;;20.83;56.44
60061;BME280;45933;51.336;12.612;2022-07-23T05:48:22;99930.00;;;20.85;55.79
60061;BME280;45933;51.336;12.612;2022-07-23T05:50:47;99914.03;;;20.86;56.18
60061;BME280;45933;51.336;12.612;2022-07-23T05:53:13;99927.13;;;20.89;56.89
60061;BME280;45933;51.336;12.612;2022-07-23T05:55:38;99934.84;;;20.94;56.48
60061;BME280;45933;51.336;12.612;2022-07-23T05:58:04;99948.63;;;21.01;56.09
60061;BME280;45933;51.336;12.612;2022-07-23T06:00:29;99967.97;;;21.03;56.50
60061;BME280;45933;51.336;12.612;2022-07-23T06:02:55;99987.44;;;21.02;56.23
60061;BME280;45933;51.336;12.612;2022-07-23T06:05:21;99993.38;;;21.07;56.62
60061;BME280;45933;51.336;12.612;2022-07-23T06:07:46;99989.78;;;21.08;56.10
60061;BME280;45933;51.336;12.612;2022-07-23T06:10:11;99992.38;;;21.09;55.96
60061;BME280;45933;51.336;12.612;2022-07-23T06:12:37;99968.44;;;21.11;56.70
60061;BME280;45933;51.336;12.612;2022-07-23T06:15:03;99975.31;;;21.15;56.09
60061;BME280;45933;51.336;12.612;2022-07-23T06:17:29;99987.72;;;21.14;56.28
60061;BME280;45933;51.336;12.612;2022-07-23T06:19:55;99992.59;;;21.22;55.88
60061;BME280;45933;51.336;12.612;2022-07-23T06:22:20;99980.06;;;21.26;56.84
60061;BME280;45933;51.336;12.612;2022-07-23T06:24:46;99974.47;;;21.32;55.32
60061;BME280;45933;51.336;12.612;2022-07-23T06:27:12;99973.28;;;21.37;55.90
60061;BME280;45933;51.336;12.612;2022-07-23T06:29:37;99969.47;;;21.43;55.21
60061;BME280;45933;51.336;12.612;2022-07-23T06:32:03;99975.31;;;21.50;56.43
60061;BME280;45933;51.336;12.612;2022-07-23T06:34:28;99976.94;;;21.52;55.46
60061;BME280;45933;51.336;12.612;2022-07-23T06:36:53;99961.66;;;21.57;54.94
60061;BME280;45933;51.336;12.612;2022-07-23T06:39:19;99962.41;;;21.59;55.38
60061;BME280;45933;51.336;12.612;2022-07-23T06:41:44;99981.75;;;21.61;54.87
60061;BME280;45933;51.336;12.612;2022-07-23T06:44:10;99973.50;;;21.67;55.04
60061;BME280;45933;51.336;12.612;2022-07-23T06:46:35;99976.66;;;21.74;55.48
60061;BME280;45933;51.336;12.612;2022-07-23T06:49:00;99964.97;;;21.78;56.23
60061;BME280;45933;51.336;12.612;2022-07-23T06:51:26;99958.47;;;21.84;55.16
60061;BME280;45933;51.336;12.612;2022-07-23T06:53:51;99958.28;;;21.87;54.25
60061;BME280;45933;51.336;12.612;2022-07-23T06:56:17;99951.13;;;21.89;53.67
60061;BME280;45933;51.336;12.612;2022-07-23T06:58:42;99946.56;;;21.91;54.28
60061;BME280;45933;51.336;12.612;2022-07-23T07:01:08;99948.22;;;21.93;53.89
60061;BME280;45933;51.336;12.612;2022-07-23T07:03:33;99962.34;;;21.94;53.91
60061;BME280;45933;51.336;12.612;2022-07-23T07:05:58;99965.00;;;21.94;53.59
60061;BME280;45933;51.336;12.612;2022-07-23T07:08:24;99967.78;;;21.91;53.71
60061;BME280;45933;51.336;12.612;2022-07-23T07:10:49;99965.84;;;21.95;53.93
60061;BME280;45933;51.336;12.612;2022-07-23T07:13:15;99958.66;;;21.97;54.13
60061;BME280;45933;51.336;12.612;2022-07-23T07:15:40;99968.91;;;22.03;54.50
60061;BME280;45933;51.336;12.612;2022-07-23T07:18:06;99973.22;;;22.05;54.03
60061;BME280;45933;51.336;12.612;2022-07-23T07:20:31;99972.91;;;22.11;53.98
60061;BME280;45933;51.336;12.612;2022-07-23T07:22:57;99975.13;;;22.19;54.09
60061;BME280;45933;51.336;12.612;2022-07-23T07:25:22;99976.34;;;22.29;53.84
60061;BME280;45933;51.336;12.612;2022-07-23T07:27:47;99982.34;;;22.33;53.49
60061;BME280;45933;51.336;12.612;2022-07-23T07:30:13;99995.38;;;22.37;52.86
60061;BME280;45933;51.336;12.612;2022-07-23T07:32:39;100009.00;;;22.47;52.82
60061;BME280;45933;51.336;12.612;2022-07-23T07:35:05;100012.50;;;22.48;52.13
60061;BME280;45933;51.336;12.612;2022-07-23T07:37:31;100005.03;;;22.54;53.05
60061;BME280;45933;51.336;12.612;2022-07-23T07:39:57;99998.03;;;22.53;51.91
60061;BME280;45933;51.336;12.612;2022-07-23T07:42:22;99993.31;;;22.58;52.30
60061;BME280;45933;51.336;12.612;2022-07-23T07:44:47;99998.63;;;22.58;52.26
60061;BME280;45933;51.336;12.612;2022-07-23T07:47:13;99990.31;;;22.64;53.78
60061;BME280;45933;51.336;12.612;2022-07-23T07:49:41;100004.28;;;22.68;52.77
60061;BME280;45933;51.336;12.612;2022-07-23T07:52:06;100015.50;;;22.73;52.64
60061;BME280;45933;51.336;12.612;2022-07-23T07:54:32;100005.38;;;22.80;52.03
60061;BME280;45933;51.336;12.612;2022-07-23T07:56:57;100013.44;;;22.78;52.34
60061;BME280;45933;51.336;12.612;2022-07-23T07:59:23;100013.84;;;22.86;52.25
60061;BME280;45933;51.336;12.612;2022-07-23T08:01:48;100019.94;;;22.88;51.95
60061;BME280;45933;51.336;12.612;2022-07-23T08:04:13;100016.16;;;22.92;52.01
60061;BME280;45933;51.336;12.612;2022-07-23T08:06:39;100024.75;;;22.98;52.45
60061;BME280;45933;51.336;12.612;2022-07-23T08:09:04;100026.44;;;22.99;51.54
60061;BME280;45933;51.336;12.612;2022-07-23T08:11:29;100011.78;;;23.07;52.07
60061;BME280;45933;51.336;12.612;2022-07-23T08:13:55;100017.59;;;23.14;51.64
60061;BME280;45933;51.336;12.612;2022-07-23T08:16:21;100025.88;;;23.23;52.46
60061;BME280;45933;51.336;12.612;2022-07-23T08:18:47;100029.22;;;23.27;51.41
60061;BME280;45933;51.336;12.612;2022-07-23T08:21:12;100012.81;;;23.35;51.65
60061;BME280;45933;51.336;12.612;2022-07-23T08:23:37;100017.22;;;23.50;52.01
60061;BME280;45933;51.336;12.612;2022-07-23T08:26:03;100018.75;;;23.54;51.44
60061;BME280;45933;51.336;12.612;2022-07-23T08:28:29;100016.41;;;23.64;51.88
60061;BME280;45933;51.336;12.612;2022-07-23T08:30:54;100029.19;;;23.73;51.18
60061;BME280;45933;51.336;12.612;2022-07-23T08:33:20;100028.97;;;23.76;51.33
60061;BME280;45933;51.336;12.612;2022-07-23T08:35:47;100040.88;;;23.85;51.49
60061;BME280;45933;51.336;12.612;2022-07-23T08:38:15;100039.34;;;23.81;50.81
60061;BME280;45933;51.336;12.612;2022-07-23T08:40:43;100032.97;;;23.83;50.46
60061;BME280;45933;51.336;12.612;2022-07-23T08:43:18;100033.84;;;23.84;50.25
60061;BME280;45933;51.336;12.612;2022-07-23T08:45:45;100025.66;;;23.87;50.54
60061;BME280;45933;51.336;12.612;2022-07-23T08:48:14;100027.84;;;23.94;50.96
60061;BME280;45933;51.336;12.612;2022-07-23T08:50:43;100026.50;;;24.02;50.99
60061;BME280;45933;51.336;12.612;2022-07-23T08:53:09;100038.13;;;24.00;50.36
60061;BME280;45933;51.336;12.612;2022-07-23T08:55:35;100049.72;;;24.14;49.80
60061;BME280;45933;51.336;12.612;2022-07-23T08:58:00;100056.00;;;24.13;49.29
60061;BME280;45933;51.336;12.612;2022-07-23T09:00:26;100054.84;;;24.17;49.50
60061;BME280;45933;51.336;12.612;2022-07-23T09:02:52;100052.94;;;24.19;49.60
60061;BME280;45933;51.336;12.612;2022-07-23T09:05:19;100057.63;;;24.15;50.20
60061;BME280;45933;51.336;12.612;2022-07-23T09:08:11;100053.34;;;24.27;49.91
60061;BME280;45933;51.336;12.612;2022-07-23T09:10:51;100059.50;;;24.13;49.50
60061;BME280;45933;51.336;12.612;2022-07-23T09:15:50;100049.63;;;24.01;49.78
60061;BME280;45933;51.336;12.612;2022-07-23T09:18:16;100062.16;;;23.99;49.85
60061;BME280;45933;51.336;12.612;2022-07-23T09:20:43;100054.56;;;23.93;49.44
60061;BME280;45933;51.336;12.612;2022-07-23T09:23:09;100052.00;;;23.91;50.31
60061;BME280;45933;51.336;12.612;2022-07-23T09:25:34;100056.56;;;23.89;50.16
60061;BME280;45933;51.336;12.612;2022-07-23T09:28:00;100065.41;;;23.90;50.62
60061;BME280;45933;51.336;12.612;2022-07-23T09:30:32;100074.91;;;23.94;50.84
60061;BME280;45933;51.336;12.612;2022-07-23T09:33:13;100081.47;;;24.03;50.35
60061;BME280;45933;51.336;12.612;2022-07-23T09:35:58;100090.50;;;24.00;49.73
60061;BME280;45933;51.336;12.612;2022-07-23T09:38:24;100096.41;;;23.91;49.58
60061;BME280;45933;51.336;12.612;2022-07-23T09:41:09;100092.00;;;24.04;49.66
60061;BME280;45933;51.336;12.612;2022-07-23T09:43:35;100097.81;;;23.96;49.36
60061;BME280;45933;51.336;12.612;2022-07-23T09:46:26;100102.38;;;24.09;49.37
60061;BME280;45933;51.336;12.612;2022-07-23T09:48:53;100101.91;;;24.02;49.13
60061;BME280;45933;51.336;12.612;2022-07-23T09:51:21;100106.56;;;23.98;48.85
60061;BME280;45933;51.336;12.612;2022-07-23T09:54:01;100101.72;;;23.91;49.06
60061;BME280;45933;51.336;12.612;2022-07-23T09:56:27;100102.94;;;23.85;49.68
60061;BME280;45933;51.336;12.612;2022-07-23T09:58:54;100100.66;;;23.79;50.20
60061;BME280;45933;51.336;12.612;2022-07-23T10:01:38;100083.63;;;23.82;49.98
60061;BME280;45933;51.336;12.612;2022-07-23T10:04:04;100084.09;;;23.88;50.66
60061;BME280;45933;51.336;12.612;2022-07-23T10:06:30;100081.69;;;23.99;50.94
60061;BME280;45933;51.336;12.612;2022-07-23T10:08:58;100086.03;;;24.15;49.79
60061;BME280;45933;51.336;12.612;2022-07-23T10:11:25;100098.03;;;24.22;49.28
60061;BME280;45933;51.336;12.612;2022-07-23T10:13:54;100103.56;;;24.33;48.65
60061;BME280;45933;51.336;12.612;2022-07-23T10:16:20;100105.84;;;24.39;49.21
60061;BME280;45933;51.336;12.612;2022-07-23T10:18:47;100105.28;;;24.48;48.57
60061;BME280;45933;51.336;12.612;2022-07-23T10:21:18;100104.06;;;24.54;48.34
60061;BME280;45933;51.336;12.612;2022-07-23T10:23:58;100104.91;;;24.55;47.95
60061;BME280;45933;51.336;12.612;2022-07-23T10:26:54;100104.78;;;24.56;48.01
60061;BME280;45933;51.336;12.612;2022-07-23T10:32:02;100115.44;;;24.56;47.92
60061;BME280;45933;51.336;12.612;2022-07-23T10:34:31;100116.06;;;24.47;47.94
60061;BME280;45933;51.336;12.612;2022-07-23T10:37:12;100117.75;;;24.48;47.59
60061;BME280;45933;51.336;12.612;2022-07-23T10:39:39;100119.75;;;24.44;47.22
60061;BME280;45933;51.336;12.612;2022-07-23T10:42:17;100118.72;;;24.47;47.63
60061;BME280;45933;51.336;12.612;2022-07-23T10:44:44;100116.88;;;24.33;47.60
60061;BME280;45933;51.336;12.612;2022-07-23T10:47:11;100128.66;;;24.29;47.05
60061;BME280;45933;51.336;12.612;2022-07-23T10:50:26;100121.09;;;24.37;47.03
60061;BME280;45933;51.336;12.612;2022-07-23T10:53:15;100122.31;;;24.32;46.96
60061;BME280;45933;51.336;12.612;2022-07-23T10:55:44;100122.75;;;24.24;46.82
60061;BME280;45933;51.336;12.612;2022-07-23T10:58:11;100114.03;;;24.22;47.12
60061;BME280;45933;51.336;12.612;2022-07-23T11:00:37;100115.56;;;24.26;47.29
60061;BME280;45933;51.336;12.612;2022-07-23T11:03:05;100126.78;;;24.31;47.10
60061;BME280;45933;51.336;12.612;2022-07-23T11:05:43;100115.94;;;24.48;47.36
60061;BME280;45933;51.336;12.612;2022-07-23T11:13:39;100119.69;;;24.87;47.19
60061;BME280;45933;51.336;12.612;2022-07-23T11:16:07;100125.25;;;24.84;46.51
60061;BME280;45933;51.336;12.612;2022-07-23T11:29:39;100130.22;;;25.17;44.82
60061;BME280;45933;51.336;12.612;2022-07-23T11:32:07;100129.84;;;25.09;45.21
60061;BME280;45933;51.336;12.612;2022-07-23T11:34:44;100127.97;;;25.11;45.60
60061;BME280;45933;51.336;12.612;2022-07-23T11:37:13;100125.00;;;25.01;45.21
60061;BME280;45933;51.336;12.612;2022-07-23T11:39:54;100121.84;;;25.09;45.63
60061;BME280;45933;51.336;12.612;2022-07-23T11:42:20;100121.00;;;25.09;45.32
60061;BME280;45933;51.336;12.612;2022-07-23T11:44:46;100123.75;;;25.21;45.30
60061;BME280;45933;51.336;12.612;2022-07-23T11:47:11;100108.13;;;25.42;45.37
60061;BME280;45933;51.336;12.612;2022-07-23T11:49:38;100106.56;;;25.65;44.35
60061;BME280;45933;51.336;12.612;2022-07-23T11:52:11;100110.16;;;25.91;44.32
60061;BME280;45933;51.336;12.612;2022-07-23T11:57:12;100103.88;;;26.43;43.66
60061;BME280;45933;51.336;12.612;2022-07-23T11:59:38;100108.66;;;26.64;42.80
60061;BME280;45933;51.336;12.612;2022-07-23T12:02:05;100105.88;;;26.89;42.52
60061;BME280;45933;51.336;12.612;2022-07-23T12:04:48;100096.22;;;27.12;42.97
60061;BME280;45933;51.336;12.612;2022-07-23T12:07:33;100090.84;;;27.36;42.56
60061;BME280;45933;51.336;12.612;2022-07-23T12:10:15;100092.03;;;27.56;41.71
60061;BME280;45933;51.336;12.612;2022-07-23T12:12:43;100093.50;;;27.60;40.53
60061;BME280;45933;51.336;12.612;2022-07-23T12:15:14;100093.28;;;27.63;40.58
60061;BME280;45933;51.336;12.612;2022-07-23T12:17:41;100101.25;;;27.76;40.31
60061;BME280;45933;51.336;12.612;2022-07-23T12:20:09;100095.88;;;27.76;39.47
60061;BME280;45933;51.336;12.612;2022-07-23T12:22:39;100100.91;;;27.80;39.67
60061;BME280;45933;51.336;12.612;2022-07-23T12:25:17;100096.53;;;27.79;39.90
60061;BME280;45933;51.336;12.612;2022-07-23T12:27:44;100094.69;;;27.80;39.25
60061;BME280;45933;51.336;12.612;2022-07-23T12:30:27;100098.25;;;27.92;40.76
60061;BME280;45933;51.336;12.612;2022-07-23T12:32:56;100097.75;;;27.86;39.74
60061;BME280;45933;51.336;12.612;2022-07-23T12:35:29;100100.41;;;27.75;39.70
60061;BME280;45933;51.336;12.612;2022-07-23T12:38:00;100098.34;;;27.79;40.44
60061;BME280;45933;51.336;12.612;2022-07-23T12:40:29;100096.34;;;27.70;40.15
60061;BME280;45933;51.336;12.612;2022-07-23T12:43:01;100096.44;;;27.68;40.19
60061;BME280;45933;51.336;12.612;2022-07-23T12:45:28;100092.41;;;27.62;40.42
60061;BME280;45933;51.336;12.612;2022-07-23T12:48:06;100096.31;;;27.58;40.01
60061;BME280;45933;51.336;12.612;2022-07-23T12:50:36;100090.09;;;27.58;40.96
60061;BME280;45933;51.336;12.612;2022-07-23T12:53:16;100096.19;;;27.60;40.47
60061;BME280;45933;51.336;12.612;2022-07-23T12:55:43;100096.75;;;27.52;40.64
60061;BME280;45933;51.336;12.612;2022-07-23T12:58:15;100099.31;;;27.54;40.61
60061;BME280;45933;51.336;12.612;2022-07-23T13:00:57;100086.66;;;27.56;40.44
60061;BME280;45933;51.336;12.612;2022-07-23T13:03:40;100093.50;;;27.60;40.96
60061;BME280;45933;51.336;12.612;2022-07-23T13:06:10;100090.69;;;27.61;40.95
60061;BME280;45933;51.336;12.612;2022-07-23T13:08:37;100085.97;;;27.65;40.81
60061;BME280;45933;51.336;12.612;2022-07-23T13:11:05;100087.00;;;27.75;40.54